Time,TemperatureF,DewpointF,PressureIn,WindDirection,WindDirectionDegrees,WindSpeedMPH,WindSpeedGustMPH,Humidity,HourlyPrecipIn,Conditions,Clouds,dailyrainin,SoftwareType,DateUTC
2013-01-27 00:00:00,7.9,0.4,30.28,WNW,285,3.5,3.5,71,0.00,CLR,FEW,0.00,WeatherDisplay:10.37,2013-01-27 05:00:00,
2013-01-27 00:02:00,8.0,0.8,30.28,NW,317,6.9,6.9,72,0.00,CLR,FEW,0.00,WeatherDisplay:10.37,2013-01-27 05:02:00,
2013-01-27 00:03:00,8.0,0.5,30.28,NW,308,6.9,6.9,71,0.00,CLR,FEW,0.00,WeatherDisplay:10.37,2013-01-27 05:03:00,
2013-01-27 00:08:00,8.0,0.5,30.27,WNW,290,3.5,3.5,71,0.00,CLR,FEW,0.00,WeatherDisplay:10.37,2013-01-27 05:08:00,
2013-01-27 00:13:00,7.9,0.4,30.27,West,275,3.5,3.5,71,0.00,CLR,FEW,0.00,WeatherDisplay:10.37,2013-01-27 05:13:00,
2013-01-27 00:18:00,7.8,0.3,30.27,WSW,254,3.5,3.5,71,0.00,CLR,FEW,0.00,WeatherDisplay:10.37,2013-01-27 05:18:00,
2013-01-27 00:23:00,7.8,0.6,30.27,WNW,293,2.3,2.3,72,0.00,CLR,FEW,0.00,WeatherDisplay:10.37,2013-01-27 05:23:00,
2013-01-27 00:28:00,7.7,0.8,30.27,WNW,291,3.5,3.5,73,0.00,CLR,FEW,0.00,WeatherDisplay:10.37,2013-01-27 05:28:00,
2013-01-27 00:33:00,7.8,0.6,30.28,WNW,286,2.3,2.3,72,0.00,CLR,FEW,0.00,WeatherDisplay:10.37,2013-01-27 05:33:00,
2013-01-27 00:38:00,7.7,0.8,30.28,WNW,294,5.8,5.8,73,0.00,CLR,FEW,0.00,WeatherDisplay:10.37,2013-01-27 05:38:00,
2013-01-27 00:43:00,7.9,1.0,30.27,West,281,4.0,4.0,73,0.00,CLR,FEW,0.00,WeatherDisplay:10.37,2013-01-27 05:43:00,
2013-01-27 00:48:00,8.1,1.2,30.28,West,279,2.3,2.3,73,0.00,CLR,FEW,0.00,WeatherDisplay:10.37,2013-01-27 05:48:00,
2013-01-27 00:53:00,8.0,0.8,30.28,WNW,286,3.5,3.5,72,0.00,CLR,FEW,0.00,WeatherDisplay:10.37,2013-01-27 05:53:00,
2013-01-27 00:58:00,8.1,1.2,30.28,WNW,289,5.8,5.8,73,0.00,CLR,FEW,0.00,WeatherDisplay:10.37,2013-01-27 05:58:00,
2013-01-27 01:03:00,8.0,1.4,30.27,NW,313,5.0,5.0,74,0.00,CLR,FEW,0.00,WeatherDisplay:10.37,2013-01-27 06:03:00,
2013-01-27 01:08:00,8.2,1.3,30.28,West,266,3.5,3.5,73,0.00,CLR,FEW,0.00,WeatherDisplay:10.37,2013-01-27 06:08:00,
2013-01-27 01:13:00,8.3,1.1,30.28,WSW,258,4.6,4.6,72,0.00,CLR,FEW,0.00,WeatherDisplay:10.37,2013-01-27 06:13:00,
2013-01-27 01:18:00,8.5,1.6,30.28,WNW,294,3.5,3.5,73,0.00,CLR,FEW,0.00,WeatherDisplay:10.37,2013-01-27 06:18:00,
2013-01-27 01:23:00,8.6,1.4,30.29,NW,311,2.3,2.3,72,0.00,CLR,FEW,0.00,WeatherDisplay:10.37,2013-01-27 06:23:00,
2013-01-27 01:28:00,8.5,1.3,30.29,WNW,296,3.5,3.5,72,0.00,CLR,FEW,0.00,WeatherDisplay:10.37,2013-01-27 06:28:00,
2013-01-27 01:33:00,8.5,1.3,30.29,West,265,4.6,4.6,72,0.00,CLR,FEW,0.00,WeatherDisplay:10.37,2013-01-27 06:33:00,
2013-01-27 01:38:00,8.4,1.5,30.29,WNW,296,3.5,3.5,73,0.00,CLR,FEW,0.00,WeatherDisplay:10.37,2013-01-27 06:38:00,
2013-01-27 01:43:00,8.2,1.3,30.30,WNW,300,2.3,2.3,73,0.00,CLR,FEW,0.00,WeatherDisplay:10.37,2013-01-27 06:43:00,
2013-01-27 01:48:00,8.2,1.3,30.30,NW,312,3.5,3.5,73,0.00,CLR,FEW,0.00,WeatherDisplay:10.37,2013-01-27 06:48:00,
2013-01-27 01:53:00,8.3,1.4,30.29,WNW,300,3.5,3.5,73,0.00,CLR,FEW,0.00,WeatherDisplay:10.37,2013-01-27 06:53:00,
2013-01-27 01:58:00,8.5,1.6,30.30,NW,307,4.6,4.6,73,0.00,CLR,FEW,0.00,WeatherDisplay:10.37,2013-01-27 06:58:00,
2013-01-27 02:03:00,8.7,1.8,30.31,WNW,292,6.9,6.9,73,0.00,CLR,FEW,0.00,WeatherDisplay:10.37,2013-01-27 07:03:00,
2013-01-27 02:08:00,8.8,1.6,30.31,WNW,298,4.6,4.6,72,0.00,CLR,FEW,0.00,WeatherDisplay:10.37,2013-01-27 07:08:00,
2013-01-27 02:15:00,8.7,1.8,30.30,WNW,303,2.3,2.3,73,0.00,CLR,FEW,0.00,WeatherDisplay:10.37,2013-01-27 07:15:00,
2013-01-27 02:20:00,8.5,1.6,30.30,NW,306,3.5,3.5,73,0.00,CLR,FEW,0.00,WeatherDisplay:10.37,2013-01-27 07:20:00,
2013-01-27 02:25:00,8.5,1.6,30.30,WNW,292,3.0,3.0,73,0.00,CLR,FEW,0.00,WeatherDisplay:10.37,2013-01-27 07:25:00,
2013-01-27 02:30:00,8.5,1.6,30.31,NW,304,3.5,3.5,73,0.00,CLR,FEW,0.00,WeatherDisplay:10.37,2013-01-27 07:30:00,
2013-01-27 02:35:00,8.5,1.6,30.31,NW,308,4.6,4.6,73,0.00,CLR,FEW,0.00,WeatherDisplay:10.37,2013-01-27 07:35:00,
2013-01-27 02:40:00,8.5,1.6,30.31,NW,313,3.5,3.5,73,0.00,CLR,FEW,0.00,WeatherDisplay:10.37,2013-01-27 07:40:00,
2013-01-27 02:44:00,8.6,1.7,30.31,WNW,300,5.0,5.0,73,0.00,CLR,FEW,0.00,WeatherDisplay:10.37,2013-01-27 07:44:00,
2013-01-27 02:49:00,8.9,2.0,30.30,NW,309,4.6,4.6,73,0.00,CLR,FEW,0.00,WeatherDisplay:10.37,2013-01-27 07:49:00,
2013-01-27 02:54:00,8.9,2.0,30.31,NW,308,5.8,5.8,73,0.00,CLR,FEW,0.00,WeatherDisplay:10.37,2013-01-27 07:54:00,
2013-01-27 02:59:00,8.9,2.0,30.30,WNW,297,3.5,3.5,73,0.00,CLR,FEW,0.00,WeatherDisplay:10.37,2013-01-27 07:59:00,
2013-01-27 03:04:00,8.8,1.9,30.30,NW,309,2.3,2.3,73,0.00,CLR,FEW,0.00,WeatherDisplay:10.37,2013-01-27 08:04:00,
2013-01-27 03:09:00,8.7,1.8,30.31,NNW,338,8.1,8.1,73,0.00,CLR,FEW,0.00,WeatherDisplay:10.37,2013-01-27 08:09:00,
2013-01-27 03:14:00,8.8,1.9,30.31,NW,310,3.5,3.5,73,0.00,CLR,FEW,0.00,WeatherDisplay:10.37,2013-01-27 08:14:00,
2013-01-27 03:19:00,8.7,1.8,30.31,NW,319,3.5,3.5,73,0.00,CLR,FEW,0.00,WeatherDisplay:10.37,2013-01-27 08:19:00,
2013-01-27 03:24:00,8.6,2.0,30.32,WNW,300,1.2,0.0,74,0.00,CLR,FEW,0.00,WeatherDisplay:10.37,2013-01-27 08:24:00,
2013-01-27 03:29:00,8.4,1.8,30.31,NW,311,5.8,5.8,74,0.00,CLR,FEW,0.00,WeatherDisplay:10.37,2013-01-27 08:29:00,
2013-01-27 03:34:00,8.5,1.9,30.31,NW,325,1.2,1.2,74,0.00,CLR,FEW,0.00,WeatherDisplay:10.37,2013-01-27 08:34:00,
2013-01-27 03:39:00,8.6,2.0,30.31,SW,219,1.0,1.0,74,0.00,CLR,FEW,0.00,WeatherDisplay:10.37,2013-01-27 08:39:00,
2013-01-27 03:44:00,8.4,1.8,30.31,SW,227,2.3,2.3,74,0.00,CLR,FEW,0.00,WeatherDisplay:10.37,2013-01-27 08:44:00,
2013-01-27 03:49:00,8.4,2.1,30.31,NNW,327,6.9,6.9,75,0.00,CLR,FEW,0.00,WeatherDisplay:10.37,2013-01-27 08:49:00,
2013-01-27 03:54:00,8.5,2.2,30.31,WNW,297,5.8,5.8,75,0.00,CLR,FEW,0.00,WeatherDisplay:10.37,2013-01-27 08:54:00,
2013-01-27 03:59:00,8.5,2.2,30.31,WSW,248,3.5,3.5,75,0.00,CLR,FEW,0.00,WeatherDisplay:10.37,2013-01-27 08:59:00,
2013-01-27 04:04:00,8.6,2.3,30.31,NW,325,5.8,5.8,75,0.00,CLR,FEW,0.00,WeatherDisplay:10.37,2013-01-27 09:04:00,
2013-01-27 04:09:00,8.7,2.4,30.32,WNW,292,4.6,4.6,75,0.00,CLR,FEW,0.00,WeatherDisplay:10.37,2013-01-27 09:09:00,
2013-01-27 04:14:00,8.7,2.4,30.32,WNW,292,3.5,3.5,75,0.00,CLR,FEW,0.00,WeatherDisplay:10.37,2013-01-27 09:14:00,
2013-01-27 04:19:00,8.6,2.3,30.32,NW,309,3.5,3.5,75,0.00,CLR,FEW,0.00,WeatherDisplay:10.37,2013-01-27 09:19:00,
2013-01-27 04:24:00,8.5,2.2,30.32,WNW,286,4.6,4.6,75,0.00,CLR,FEW,0.00,WeatherDisplay:10.37,2013-01-27 09:24:00,
2013-01-27 04:29:00,8.6,2.3,30.32,NW,319,3.5,3.5,75,0.00,CLR,FEW,0.00,WeatherDisplay:10.37,2013-01-27 09:29:00,
2013-01-27 04:34:00,8.6,2.3,30.33,WNW,293,4.6,4.6,75,0.00,CLR,FEW,0.00,WeatherDisplay:10.37,2013-01-27 09:34:00,
2013-01-27 04:39:00,8.5,2.5,30.33,WNW,290,3.5,3.5,76,0.00,CLR,FEW,0.00,WeatherDisplay:10.37,2013-01-27 09:39:00,
2013-01-27 04:44:00,8.4,2.1,30.33,WNW,284,3.5,3.5,75,0.00,CLR,FEW,0.00,WeatherDisplay:10.37,2013-01-27 09:44:00,
2013-01-27 04:49:00,8.3,2.3,30.33,NNW,330,3.5,3.5,76,0.00,CLR,FEW,0.00,WeatherDisplay:10.37,2013-01-27 09:49:00,
2013-01-27 04:54:00,8.4,2.4,30.33,WNW,303,6.9,6.9,76,0.00,CLR,FEW,0.00,WeatherDisplay:10.37,2013-01-27 09:54:00,
2013-01-27 04:59:00,8.3,2.3,30.33,NW,317,3.5,3.5,76,0.00,CLR,FEW,0.00,WeatherDisplay:10.37,2013-01-27 09:59:00,
2013-01-27 05:04:00,8.3,2.3,30.33,WNW,302,2.3,2.3,76,0.00,CLR,FEW,0.00,WeatherDisplay:10.37,2013-01-27 10:04:00,
2013-01-27 05:09:00,8.3,2.3,30.34,NW,315,3.5,3.5,76,0.00,CLR,FEW,0.00,WeatherDisplay:10.37,2013-01-27 10:09:00,
2013-01-27 05:14:00,8.1,2.1,30.34,NW,320,2.3,2.3,76,0.00,CLR,FEW,0.00,WeatherDisplay:10.37,2013-01-27 10:14:00,
2013-01-27 05:19:00,8.1,2.4,30.34,NW,315,2.3,2.3,77,0.00,CLR,FEW,0.00,WeatherDisplay:10.37,2013-01-27 10:19:00,
2013-01-27 05:24:00,8.2,2.2,30.34,NW,305,2.3,2.3,76,0.00,CLR,FEW,0.00,WeatherDisplay:10.37,2013-01-27 10:24:00,
2013-01-27 05:29:00,8.1,2.1,30.34,ENE,71,3.5,3.5,76,0.00,CLR,FEW,0.00,WeatherDisplay:10.37,2013-01-27 10:29:00,
2013-01-27 05:34:00,8.1,2.4,30.34,WNW,286,2.3,2.3,77,0.00,CLR,FEW,0.00,WeatherDisplay:10.37,2013-01-27 10:34:00,
2013-01-27 05:39:00,8.2,2.5,30.35,SW,234,3.5,3.5,77,0.00,CLR,FEW,0.00,WeatherDisplay:10.37,2013-01-27 10:39:00,
2013-01-27 05:44:00,8.2,2.5,30.35,NW,311,4.6,4.6,77,0.00,CLR,FEW,0.00,WeatherDisplay:10.37,2013-01-27 10:44:00,
2013-01-27 05:49:00,8.0,2.3,30.35,NW,306,2.3,2.3,77,0.00,CLR,FEW,0.00,WeatherDisplay:10.37,2013-01-27 10:49:00,
2013-01-27 05:54:00,7.9,2.2,30.35,West,279,3.5,3.5,77,0.00,CLR,FEW,0.00,WeatherDisplay:10.37,2013-01-27 10:54:00,
2013-01-27 05:59:00,7.7,2.3,30.36,West,279,1.0,0.0,78,0.00,CLR,FEW,0.00,WeatherDisplay:10.37,2013-01-27 10:59:00,
2013-01-27 06:04:00,7.6,2.2,30.36,NW,309,2.3,0.0,78,0.00,CLR,FEW,0.00,WeatherDisplay:10.37,2013-01-27 11:04:00,
2013-01-27 06:09:00,7.4,2.0,30.36,WNW,294,1.2,1.2,78,0.00,CLR,FEW,0.00,WeatherDisplay:10.37,2013-01-27 11:09:00,
2013-01-27 06:15:00,7.3,1.9,30.36,East,88,1.2,0.0,78,0.00,CLR,FEW,0.00,WeatherDisplay:10.37,2013-01-27 11:15:00,
2013-01-27 06:20:00,7.2,2.1,30.36,WNW,298,3.5,3.5,79,0.00,CLR,FEW,0.00,WeatherDisplay:10.37,2013-01-27 11:20:00,
2013-01-27 06:25:00,7.5,2.1,30.36,WNW,287,3.5,3.5,78,0.00,CLR,FEW,0.00,WeatherDisplay:10.37,2013-01-27 11:25:00,
2013-01-27 06:30:00,7.8,2.4,30.36,WNW,298,3.5,3.5,78,0.00,CLR,FEW,0.00,WeatherDisplay:10.37,2013-01-27 11:30:00,
2013-01-27 06:35:00,7.8,2.4,30.37,WNW,282,1.2,1.2,78,0.00,CLR,FEW,0.00,WeatherDisplay:10.37,2013-01-27 11:35:00,
2013-01-27 06:40:00,7.7,2.3,30.37,NW,306,3.5,3.5,78,0.00,CLR,FEW,0.00,WeatherDisplay:10.37,2013-01-27 11:40:00,
2013-01-27 06:45:00,7.7,2.3,30.37,NW,309,2.0,2.0,78,0.00,CLR,FEW,0.00,WeatherDisplay:10.37,2013-01-27 11:45:00,
2013-01-27 06:50:00,7.6,2.2,30.37,West,279,3.5,3.5,78,0.00,CLR,FEW,0.00,WeatherDisplay:10.37,2013-01-27 11:50:00,
2013-01-27 06:55:00,7.6,2.2,30.37,West,280,3.5,3.5,78,0.00,CLR,FEW,0.00,WeatherDisplay:10.37,2013-01-27 11:55:00,
2013-01-27 07:00:00,7.8,2.4,30.38,WNW,302,5.8,5.8,78,0.00,CLR,FEW,0.00,WeatherDisplay:10.37,2013-01-27 12:00:00,
2013-01-27 07:05:00,7.8,2.4,30.38,West,279,2.3,2.3,78,0.00,CLR,FEW,0.00,WeatherDisplay:10.37,2013-01-27 12:05:00,
2013-01-27 07:10:00,7.7,2.3,30.38,West,276,6.0,6.0,78,0.00,CLR,FEW,0.00,WeatherDisplay:10.37,2013-01-27 12:10:00,
2013-01-27 07:15:00,7.8,2.4,30.38,West,277,5.0,5.0,78,0.00,CLR,FEW,0.00,WeatherDisplay:10.37,2013-01-27 12:15:00,
2013-01-27 07:20:00,8.0,2.6,30.39,WNW,290,2.3,2.3,78,0.00,CLR,FEW,0.00,WeatherDisplay:10.37,2013-01-27 12:20:00,
2013-01-27 07:25:00,7.9,2.5,30.39,WNW,290,1.2,0.0,78,0.00,CLR,FEW,0.00,WeatherDisplay:10.37,2013-01-27 12:25:00,
2013-01-27 07:30:00,7.7,2.3,30.39,South,184,1.2,1.2,78,0.00,CLR,FEW,0.00,WeatherDisplay:10.37,2013-01-27 12:30:00,
2013-01-27 07:35:00,7.8,2.4,30.40,WSW,246,0.0,0.0,78,0.00,CLR,FEW,0.00,WeatherDisplay:10.37,2013-01-27 12:35:00,
2013-01-27 07:40:00,7.8,2.4,30.40,WNW,282,2.3,2.3,78,0.00,CLR,FEW,0.00,WeatherDisplay:10.37,2013-01-27 12:40:00,
2013-01-27 07:45:00,7.8,2.4,30.40,North,5,1.2,0.0,78,0.00,CLR,FEW,0.00,WeatherDisplay:10.37,2013-01-27 12:45:00,
2013-01-27 07:50:00,7.8,2.4,30.41,NW,322,2.3,2.3,78,0.00,CLR,FEW,0.00,WeatherDisplay:10.37,2013-01-27 12:50:00,
2013-01-27 07:55:00,8.1,2.7,30.42,NNW,328,3.0,3.0,78,0.00,CLR,FEW,0.00,WeatherDisplay:10.37,2013-01-27 12:55:00,
2013-01-27 08:00:00,8.6,2.9,30.42,WNW,298,2.3,2.3,77,0.00,CLR,FEW,0.00,WeatherDisplay:10.37,2013-01-27 13:00:00,
2013-01-27 08:19:00,9.6,3.0,30.42,WNW,292,3.5,3.5,74,0.00,CLR,FEW,0.00,WeatherDisplay:10.37,2013-01-27 13:19:00,
2013-01-27 08:24:00,10.0,3.1,30.42,West,269,4.0,4.0,73,0.00,CLR,FEW,0.00,WeatherDisplay:10.37,2013-01-27 13:24:00,
2013-01-27 08:29:00,10.3,3.4,30.42,WNW,302,3.5,3.5,73,0.00,CLR,FEW,0.00,WeatherDisplay:10.37,2013-01-27 13:29:00,
2013-01-27 08:34:00,10.5,3.6,30.42,West,271,5.0,5.0,73,0.00,CLR,FEW,0.00,WeatherDisplay:10.37,2013-01-27 13:34:00,
2013-01-27 08:39:00,10.8,3.5,30.42,NW,309,5.0,5.0,72,0.00,CLR,FEW,0.00,WeatherDisplay:10.37,2013-01-27 13:39:00,
2013-01-27 08:44:00,10.9,3.0,30.42,SW,233,3.5,3.5,70,0.00,CLR,FEW,0.00,WeatherDisplay:10.37,2013-01-27 13:44:00,
2013-01-27 08:49:00,11.2,3.0,30.42,NW,306,3.5,3.5,69,0.00,CLR,FEW,0.00,WeatherDisplay:10.37,2013-01-27 13:49:00,
2013-01-27 08:54:00,11.4,3.2,30.42,NW,314,3.5,3.5,69,0.00,CLR,FEW,0.00,WeatherDisplay:10.37,2013-01-27 13:54:00,
2013-01-27 08:59:00,11.7,3.2,30.42,North,355,6.0,6.0,68,0.00,CLR,FEW,0.00,WeatherDisplay:10.37,2013-01-27 13:59:00,
2013-01-27 09:04:00,12.0,3.5,30.43,WNW,297,4.6,4.6,68,0.00,CLR,FEW,0.00,WeatherDisplay:10.37,2013-01-27 14:04:00,
2013-01-27 09:09:00,12.2,2.7,30.43,West,278,8.1,8.1,65,0.00,CLR,FEW,0.00,WeatherDisplay:10.37,2013-01-27 14:09:00,
2013-01-27 09:14:00,12.2,3.3,30.43,NW,312,3.5,3.5,67,0.00,CLR,FEW,0.00,WeatherDisplay:10.37,2013-01-27 14:14:00,
2013-01-27 09:19:00,12.6,3.1,30.43,NNE,30,2.3,2.3,65,0.00,CLR,FEW,0.00,WeatherDisplay:10.37,2013-01-27 14:19:00,
2013-01-27 09:24:00,12.7,2.8,30.44,NW,323,2.0,2.0,64,0.00,CLR,FEW,0.00,WeatherDisplay:10.37,2013-01-27 14:24:00,
2013-01-27 09:29:00,12.8,2.9,30.44,WNW,301,3.5,3.5,64,0.00,CLR,FEW,0.00,WeatherDisplay:10.37,2013-01-27 14:29:00,
2013-01-27 09:34:00,13.0,2.8,30.44,NNW,347,3.5,3.5,63,0.00,CLR,FEW,0.00,WeatherDisplay:10.37,2013-01-27 14:34:00,
2013-01-27 09:39:00,13.4,2.8,30.44,NW,325,3.5,3.5,62,0.00,CLR,FEW,0.00,WeatherDisplay:10.37,2013-01-27 14:39:00,
2013-01-27 09:44:00,13.5,2.9,30.44,NW,306,4.6,4.6,62,0.00,CLR,FEW,0.00,WeatherDisplay:10.37,2013-01-27 14:44:00,
2013-01-27 09:49:00,13.5,2.9,30.45,NW,320,3.5,3.5,62,0.00,CLR,FEW,0.00,WeatherDisplay:10.37,2013-01-27 14:49:00,
2013-01-27 09:54:00,13.8,3.2,30.45,WSW,255,5.8,5.8,62,0.00,CLR,FEW,0.00,WeatherDisplay:10.37,2013-01-27 14:54:00,
2013-01-27 09:59:00,13.8,2.5,30.45,NW,323,3.5,3.5,60,0.00,CLR,FEW,0.00,WeatherDisplay:10.37,2013-01-27 14:59:00,
2013-01-27 10:04:00,14.0,2.3,30.45,West,271,3.5,3.5,59,0.00,CLR,FEW,0.00,WeatherDisplay:10.37,2013-01-27 15:04:00,
2013-01-27 10:09:00,14.3,2.9,30.45,NW,323,3.5,3.5,60,0.00,CLR,FEW,0.00,WeatherDisplay:10.37,2013-01-27 15:09:00,
2013-01-27 10:14:00,14.6,2.9,30.45,NNW,327,3.5,3.5,59,0.00,CLR,FEW,0.00,WeatherDisplay:10.37,2013-01-27 15:14:00,
2013-01-27 10:19:00,14.7,2.6,30.45,NW,312,5.8,5.8,58,0.00,CLR,FEW,0.00,WeatherDisplay:10.37,2013-01-27 15:19:00,
2013-01-27 10:24:00,15.1,3.0,30.46,WNW,290,4.6,4.6,58,0.00,CLR,FEW,0.00,WeatherDisplay:10.37,2013-01-27 15:24:00,
2013-01-27 10:29:00,15.3,2.4,30.46,NNE,17,4.6,4.6,56,0.00,CLR,FEW,0.00,WeatherDisplay:10.37,2013-01-27 15:29:00,
2013-01-27 10:34:00,15.4,2.1,30.46,NNW,329,6.9,6.9,55,0.00,CLR,FEW,0.00,WeatherDisplay:10.37,2013-01-27 15:34:00,
2013-01-27 10:39:00,15.6,2.3,30.47,NNW,336,3.5,3.5,55,0.00,CLR,FEW,0.00,WeatherDisplay:10.37,2013-01-27 15:39:00,
2013-01-27 10:44:00,15.9,2.2,30.47,NE,46,3.5,3.5,54,0.00,CLR,FEW,0.00,WeatherDisplay:10.37,2013-01-27 15:44:00,
2013-01-27 10:49:00,16.2,2.0,30.47,NNW,329,8.1,8.1,53,0.00,CLR,FEW,0.00,WeatherDisplay:10.37,2013-01-27 15:49:00,
2013-01-27 10:54:00,16.3,1.7,30.47,NNW,348,6.0,6.0,52,0.00,CLR,FEW,0.00,WeatherDisplay:10.37,2013-01-27 15:54:00,
2013-01-27 10:59:00,16.6,1.6,30.47,WNW,301,3.5,3.5,51,0.00,CLR,FEW,0.00,WeatherDisplay:10.37,2013-01-27 15:59:00,
2013-01-27 11:04:00,16.9,1.9,30.46,WNW,296,3.5,3.5,51,0.00,CLR,FEW,0.00,WeatherDisplay:10.37,2013-01-27 16:04:00,
2013-01-27 11:09:00,17.2,1.7,30.47,NNE,33,4.0,4.0,50,0.00,CLR,FEW,0.00,WeatherDisplay:10.37,2013-01-27 16:09:00,
2013-01-27 11:14:00,17.5,2.4,30.47,NW,306,4.0,4.0,51,0.00,CLR,FEW,0.00,WeatherDisplay:10.37,2013-01-27 16:14:00,
2013-01-27 11:19:00,17.7,1.7,30.47,NW,305,3.5,3.5,49,0.00,CLR,FEW,0.00,WeatherDisplay:10.37,2013-01-27 16:19:00,
2013-01-27 11:24:00,18.1,2.1,30.47,NNW,346,1.2,1.2,49,0.00,CLR,FEW,0.00,WeatherDisplay:10.37,2013-01-27 16:24:00,
2013-01-27 11:29:00,18.3,2.7,30.46,NW,316,9.2,9.2,50,0.00,CLR,FEW,0.00,WeatherDisplay:10.37,2013-01-27 16:29:00,
2013-01-27 11:34:00,18.3,1.4,30.46,SW,221,3.5,3.5,47,0.00,CLR,FEW,0.00,WeatherDisplay:10.37,2013-01-27 16:34:00,
2013-01-27 11:39:00,18.6,1.2,30.46,NW,313,2.3,2.3,46,0.00,CLR,FEW,0.00,WeatherDisplay:10.37,2013-01-27 16:39:00,
2013-01-27 11:44:00,18.9,2.0,30.47,NW,313,3.5,3.5,47,0.00,CLR,FEW,0.00,WeatherDisplay:10.37,2013-01-27 16:44:00,
2013-01-27 11:49:00,19.4,2.0,30.46,WSW,257,4.6,4.6,46,0.00,CLR,FEW,0.00,WeatherDisplay:10.37,2013-01-27 16:49:00,
2013-01-27 11:54:00,19.6,1.2,30.46,WNW,301,6.9,6.9,44,0.00,CLR,FEW,0.00,WeatherDisplay:10.37,2013-01-27 16:54:00,
2013-01-27 11:59:00,19.6,0.7,30.46,WNW,303,3.5,3.5,43,0.00,CLR,FEW,0.00,WeatherDisplay:10.37,2013-01-27 16:59:00,
2013-01-27 12:04:00,19.8,1.4,30.45,NW,310,2.3,2.3,44,0.00,CLR,FEW,0.00,WeatherDisplay:10.37,2013-01-27 17:04:00,
2013-01-27 12:09:00,20.0,1.5,30.45,NE,47,3.5,3.5,44,0.00,CLR,FEW,0.00,WeatherDisplay:10.37,2013-01-27 17:09:00,
2013-01-27 12:14:00,20.3,1.8,30.46,NW,311,5.8,5.8,44,0.00,CLR,FEW,0.00,WeatherDisplay:10.37,2013-01-27 17:14:00,
2013-01-27 12:19:00,20.5,1.5,30.45,NW,311,3.5,3.5,43,0.00,CLR,FEW,0.00,WeatherDisplay:10.37,2013-01-27 17:19:00,
2013-01-27 12:24:00,20.7,1.7,30.45,NW,313,3.5,3.5,43,0.00,CLR,FEW,0.00,WeatherDisplay:10.37,2013-01-27 17:24:00,
2013-01-27 12:29:00,21.0,2.0,30.45,NNW,340,1.2,1.2,43,0.00,CLR,FEW,0.00,WeatherDisplay:10.37,2013-01-27 17:29:00,
2013-01-27 12:34:00,21.2,2.2,30.46,NE,41,5.8,5.8,43,0.00,CLR,FEW,0.00,WeatherDisplay:10.37,2013-01-27 17:34:00,
2013-01-27 12:39:00,21.2,1.6,30.45,NW,321,3.5,3.5,42,0.00,CLR,FEW,0.00,WeatherDisplay:10.37,2013-01-27 17:39:00,
2013-01-27 12:44:00,21.3,1.7,30.46,NNW,337,2.3,2.3,42,0.00,CLR,FEW,0.00,WeatherDisplay:10.37,2013-01-27 17:44:00,
2013-01-27 12:49:00,21.6,2.5,30.45,NNE,30,2.3,2.3,43,0.00,CLR,FEW,0.00,WeatherDisplay:10.37,2013-01-27 17:49:00,
2013-01-27 12:54:00,21.7,2.6,30.45,WNW,283,4.6,4.6,43,0.00,CLR,FEW,0.00,WeatherDisplay:10.37,2013-01-27 17:54:00,
2013-01-27 12:59:00,21.8,1.1,30.45,NW,305,5.8,5.8,40,0.00,CLR,FEW,0.00,WeatherDisplay:10.37,2013-01-27 17:59:00,
2013-01-27 13:04:00,22.0,1.9,30.45,NW,307,5.8,5.8,41,0.00,CLR,FEW,0.00,WeatherDisplay:10.37,2013-01-27 18:04:00,
2013-01-27 13:09:00,22.1,1.9,30.45,ENE,67,4.0,4.0,41,0.00,CLR,FEW,0.00,WeatherDisplay:10.37,2013-01-27 18:09:00,
2013-01-27 13:14:00,22.3,3.2,30.44,WNW,302,2.3,2.3,43,0.00,CLR,FEW,0.00,WeatherDisplay:10.37,2013-01-27 18:14:00,
2013-01-27 13:19:00,22.2,2.0,30.44,NW,324,2.3,2.3,41,0.00,CLR,FEW,0.00,WeatherDisplay:10.37,2013-01-27 18:19:00,
2013-01-27 13:24:00,22.3,2.1,30.44,North,360,1.2,1.2,41,0.00,CLR,FEW,0.00,WeatherDisplay:10.37,2013-01-27 18:24:00,
2013-01-27 13:29:00,22.6,2.9,30.44,NNE,12,1.2,1.2,42,0.00,CLR,FEW,0.00,WeatherDisplay:10.37,2013-01-27 18:29:00,
2013-01-27 13:34:00,22.8,2.0,30.44,North,5,3.5,3.5,40,0.00,CLR,FEW,0.00,WeatherDisplay:10.37,2013-01-27 18:34:00,
2013-01-27 13:39:00,23.0,3.3,30.44,ENE,59,2.3,2.3,42,0.00,CLR,FEW,0.00,WeatherDisplay:10.37,2013-01-27 18:39:00,
2013-01-27 13:44:00,23.0,2.8,30.44,South,181,3.5,3.5,41,0.00,CLR,FEW,0.00,WeatherDisplay:10.37,2013-01-27 18:44:00,
2013-01-27 13:49:00,22.8,2.0,30.44,NW,304,3.5,3.5,40,0.00,CLR,FEW,0.00,WeatherDisplay:10.37,2013-01-27 18:49:00,
2013-01-27 13:54:00,22.6,2.4,30.44,NW,311,2.3,2.3,41,0.00,CLR,FEW,0.00,WeatherDisplay:10.37,2013-01-27 18:54:00,
2013-01-27 13:59:00,22.5,1.8,30.44,West,265,3.5,3.5,40,0.00,CLR,FEW,0.00,WeatherDisplay:10.37,2013-01-27 18:59:00,
2013-01-27 14:04:00,22.6,2.4,30.44,WNW,297,3.5,3.5,41,0.00,CLR,FEW,0.00,WeatherDisplay:10.37,2013-01-27 19:04:00,
2013-01-27 14:09:00,22.6,2.4,30.44,South,187,3.5,3.5,41,0.00,CLR,FEW,0.00,WeatherDisplay:10.37,2013-01-27 19:09:00,
2013-01-27 14:14:00,22.6,3.4,30.44,WNW,300,3.5,3.5,43,0.00,CLR,FEW,0.00,WeatherDisplay:10.37,2013-01-27 19:14:00,
2013-01-27 14:19:00,22.6,3.9,30.44,NNW,341,4.0,4.0,44,0.00,CLR,FEW,0.00,WeatherDisplay:10.37,2013-01-27 19:19:00,
2013-01-27 14:24:00,22.7,3.5,30.44,WSW,254,3.5,3.5,43,0.00,CLR,FEW,0.00,WeatherDisplay:10.37,2013-01-27 19:24:00,
2013-01-27 14:29:00,22.9,2.7,30.44,NW,311,3.5,3.5,41,0.00,CLR,FEW,0.00,WeatherDisplay:10.37,2013-01-27 19:29:00,
2013-01-27 14:34:00,22.9,3.2,30.45,NNW,327,2.3,2.3,42,0.00,CLR,FEW,0.00,WeatherDisplay:10.37,2013-01-27 19:34:00,
2013-01-27 14:39:00,22.8,2.6,30.45,WNW,297,2.3,0.0,41,0.00,CLR,FEW,0.00,WeatherDisplay:10.37,2013-01-27 19:39:00,
2013-01-27 14:44:00,22.8,2.6,30.44,NW,321,2.3,2.3,41,0.00,CLR,FEW,0.00,WeatherDisplay:10.37,2013-01-27 19:44:00,
2013-01-27 14:49:00,22.8,2.0,30.44,NNW,338,1.2,1.2,40,0.00,CLR,FEW,0.00,WeatherDisplay:10.37,2013-01-27 19:49:00,
2013-01-27 14:54:00,22.6,2.9,30.44,WNW,302,3.5,3.5,42,0.00,CLR,FEW,0.00,WeatherDisplay:10.37,2013-01-27 19:54:00,
2013-01-27 14:59:00,22.5,2.3,30.44,WNW,298,2.3,2.3,41,0.00,CLR,FEW,0.00,WeatherDisplay:10.37,2013-01-27 19:59:00,
2013-01-27 15:04:00,22.3,4.1,30.44,West,260,2.0,2.0,45,0.00,CLR,FEW,0.00,WeatherDisplay:10.37,2013-01-27 20:04:00,
2013-01-27 15:08:00,22.3,3.2,30.44,WSW,252,1.2,1.2,43,0.00,CLR,FEW,0.00,WeatherDisplay:10.37,2013-01-27 20:08:00,
2013-01-27 15:13:00,22.2,1.5,30.44,WNW,302,5.0,5.0,40,0.00,CLR,FEW,0.00,WeatherDisplay:10.37,2013-01-27 20:13:00,
2013-01-27 15:18:00,22.4,2.2,30.44,WNW,296,3.5,3.5,41,0.00,CLR,FEW,0.00,WeatherDisplay:10.37,2013-01-27 20:18:00,
2013-01-27 15:24:00,22.5,1.2,30.44,NW,314,4.6,4.6,39,0.00,CLR,FEW,0.00,WeatherDisplay:10.37,2013-01-27 20:24:00,
2013-01-27 15:29:00,22.4,1.7,30.44,NW,307,3.5,3.5,40,0.00,CLR,FEW,0.00,WeatherDisplay:10.37,2013-01-27 20:29:00,
2013-01-27 15:34:00,22.2,1.5,30.44,WNW,292,3.0,3.0,40,0.00,CLR,FEW,0.00,WeatherDisplay:10.37,2013-01-27 20:34:00,
2013-01-27 15:39:00,22.2,-0.2,30.44,WNW,293,4.6,4.6,37,0.00,CLR,FEW,0.00,WeatherDisplay:10.37,2013-01-27 20:39:00,
2013-01-27 15:44:00,22.2,0.4,30.44,WNW,287,3.5,3.5,38,0.00,CLR,FEW,0.00,WeatherDisplay:10.37,2013-01-27 20:44:00,
2013-01-27 15:49:00,22.1,1.4,30.45,WNW,293,1.2,1.2,40,0.00,CLR,FEW,0.00,WeatherDisplay:10.37,2013-01-27 20:49:00,
2013-01-27 15:54:00,21.8,0.6,30.45,WNW,295,3.5,3.5,39,0.00,CLR,FEW,0.00,WeatherDisplay:10.37,2013-01-27 20:54:00,
2013-01-27 15:59:00,21.8,0.0,30.45,WNW,295,4.6,4.6,38,0.00,CLR,FEW,0.00,WeatherDisplay:10.37,2013-01-27 20:59:00,
2013-01-27 16:04:00,21.7,1.6,30.45,ESE,123,2.3,2.3,41,0.00,CLR,FEW,0.00,WeatherDisplay:10.37,2013-01-27 21:04:00,
2013-01-27 16:09:00,21.5,0.9,30.45,NW,319,0.0,0.0,40,0.00,CLR,FEW,0.00,WeatherDisplay:10.37,2013-01-27 21:09:00,
2013-01-27 16:14:00,21.3,2.2,30.46,North,355,1.2,1.2,43,0.00,CLR,FEW,0.00,WeatherDisplay:10.37,2013-01-27 21:14:00,
2013-01-27 16:19:00,20.9,1.9,30.46,NW,326,2.3,2.3,43,0.00,CLR,FEW,0.00,WeatherDisplay:10.37,2013-01-27 21:19:00,
2013-01-27 16:24:00,20.8,0.8,30.46,NNW,327,1.2,1.2,41,0.00,CLR,FEW,0.00,WeatherDisplay:10.37,2013-01-27 21:24:00,
2013-01-27 16:29:00,20.9,-0.2,30.47,NW,320,2.3,2.3,39,0.00,CLR,FEW,0.00,WeatherDisplay:10.37,2013-01-27 21:29:00,
2013-01-27 16:34:00,20.9,3.3,30.47,NW,320,0.0,0.0,46,0.00,CLR,FEW,0.00,WeatherDisplay:10.37,2013-01-27 21:34:00,
2013-01-27 16:39:00,20.6,3.1,30.47,NW,320,1.2,1.2,46,0.00,CLR,FEW,0.00,WeatherDisplay:10.37,2013-01-27 21:39:00,
2013-01-27 16:44:00,20.4,2.4,30.47,WNW,299,2.3,2.3,45,0.00,CLR,FEW,0.00,WeatherDisplay:10.37,2013-01-27 21:44:00,
2013-01-27 16:49:00,20.2,3.2,30.47,WNW,299,0.0,0.0,47,0.00,CLR,FEW,0.00,WeatherDisplay:10.37,2013-01-27 21:49:00,
2013-01-27 16:54:00,19.9,2.4,30.47,WNW,299,1.2,1.2,46,0.00,CLR,FEW,0.00,WeatherDisplay:10.37,2013-01-27 21:54:00,
2013-01-27 16:59:00,19.6,0.7,30.47,WNW,299,3.5,3.5,43,0.00,CLR,FEW,0.00,WeatherDisplay:10.37,2013-01-27 21:59:00,
2013-01-27 17:04:00,19.7,0.8,30.48,NW,305,1.2,1.2,43,0.00,CLR,FEW,0.00,WeatherDisplay:10.37,2013-01-27 22:04:00,
2013-01-27 17:09:00,19.5,0.6,30.47,NW,305,1.2,1.2,43,0.00,CLR,FEW,0.00,WeatherDisplay:10.37,2013-01-27 22:09:00,
2013-01-27 17:14:00,19.1,2.6,30.48,NW,305,1.2,1.2,48,0.00,CLR,FEW,0.00,WeatherDisplay:10.37,2013-01-27 22:14:00,
2013-01-27 17:19:00,18.6,2.1,30.48,NW,305,0.0,0.0,48,0.00,CLR,FEW,0.00,WeatherDisplay:10.37,2013-01-27 22:19:00,
2013-01-27 17:24:00,18.3,2.3,30.48,NW,305,0.0,0.0,49,0.00,CLR,FEW,0.00,WeatherDisplay:10.37,2013-01-27 22:24:00,
2013-01-27 17:29:00,17.9,4.0,30.49,NW,305,0.0,0.0,54,0.00,CLR,FEW,0.00,WeatherDisplay:10.37,2013-01-27 22:29:00,
2013-01-27 17:34:00,17.6,4.9,30.48,NW,305,0.0,0.0,57,0.00,CLR,FEW,0.00,WeatherDisplay:10.37,2013-01-27 22:34:00,
2013-01-27 17:39:00,17.7,2.6,30.48,WNW,302,2.3,2.3,51,0.00,CLR,FEW,0.00,WeatherDisplay:10.37,2013-01-27 22:39:00,
2013-01-27 17:44:00,17.8,3.5,30.48,WNW,302,0.0,0.0,53,0.00,CLR,FEW,0.00,WeatherDisplay:10.37,2013-01-27 22:44:00,
2013-01-27 17:49:00,17.6,5.3,30.48,WNW,302,1.2,1.2,58,0.00,CLR,FEW,0.00,WeatherDisplay:10.37,2013-01-27 22:49:00,
2013-01-27 17:54:00,17.5,5.6,30.48,WNW,302,1.0,0.0,59,0.00,CLR,FEW,0.00,WeatherDisplay:10.37,2013-01-27 22:54:00,
2013-01-27 17:59:00,17.4,5.9,30.48,WNW,290,0.0,0.0,60,0.00,CLR,FEW,0.00,WeatherDisplay:10.37,2013-01-27 22:59:00,
2013-01-27 18:03:00,17.2,6.0,30.49,WNW,290,0.0,0.0,61,0.00,CLR,FEW,0.00,WeatherDisplay:10.37,2013-01-27 23:03:00,
2013-01-27 18:08:00,17.0,5.5,30.49,WNW,290,1.2,0.0,60,0.00,CLR,FEW,0.00,WeatherDisplay:10.37,2013-01-27 23:08:00,
2013-01-27 18:13:00,16.9,5.4,30.49,WNW,290,1.2,1.2,60,0.00,CLR,FEW,0.00,WeatherDisplay:10.37,2013-01-27 23:13:00,
2013-01-27 18:18:00,16.9,5.4,30.49,WNW,290,1.2,0.0,60,0.00,CLR,FEW,0.00,WeatherDisplay:10.37,2013-01-27 23:18:00,
2013-01-27 18:23:00,16.9,5.4,30.49,WNW,294,3.5,3.5,60,0.00,CLR,FEW,0.00,WeatherDisplay:10.37,2013-01-27 23:23:00,
2013-01-27 18:28:00,16.9,4.3,30.48,WNW,294,0.0,0.0,57,0.00,CLR,FEW,0.00,WeatherDisplay:10.37,2013-01-27 23:28:00,
2013-01-27 18:33:00,16.7,4.8,30.49,WNW,294,1.2,1.2,59,0.00,CLR,FEW,0.00,WeatherDisplay:10.37,2013-01-27 23:33:00,
2013-01-27 18:38:00,16.7,4.5,30.49,WNW,294,2.3,2.3,58,0.00,CLR,FEW,0.00,WeatherDisplay:10.37,2013-01-27 23:38:00,
2013-01-27 18:43:00,16.6,4.0,30.49,WNW,294,0.0,0.0,57,0.00,CLR,FEW,0.00,WeatherDisplay:10.37,2013-01-27 23:43:00,
2013-01-27 18:48:00,16.1,3.5,30.49,WNW,294,0.0,0.0,57,0.00,CLR,FEW,0.00,WeatherDisplay:10.37,2013-01-27 23:48:00,
2013-01-27 18:53:00,15.8,4.4,30.49,WNW,294,0.0,0.0,60,0.00,CLR,FEW,0.00,WeatherDisplay:10.37,2013-01-27 23:53:00,
2013-01-27 18:58:00,15.5,5.5,30.49,WNW,294,0.0,0.0,64,0.00,CLR,FEW,0.00,WeatherDisplay:10.37,2013-01-27 23:58:00,
2013-01-27 19:03:00,15.4,5.0,30.49,WNW,294,0.0,0.0,63,0.00,CLR,FEW,0.00,WeatherDisplay:10.37,2013-01-28 00:03:00,
2013-01-27 19:08:00,15.2,4.9,30.49,WNW,294,0.0,0.0,63,0.00,CLR,FEW,0.00,WeatherDisplay:10.37,2013-01-28 00:08:00,
2013-01-27 19:13:00,15.1,5.1,30.49,WNW,294,0.0,0.0,64,0.00,CLR,FEW,0.00,WeatherDisplay:10.37,2013-01-28 00:13:00,
2013-01-27 19:18:00,15.0,5.7,30.48,WNW,294,0.0,0.0,66,0.00,CLR,FEW,0.00,WeatherDisplay:10.37,2013-01-28 00:18:00,
2013-01-27 19:23:00,14.9,5.6,30.49,WNW,285,0.0,0.0,66,0.00,CLR,FEW,0.00,WeatherDisplay:10.37,2013-01-28 00:23:00,
2013-01-27 19:28:00,14.9,4.9,30.49,WNW,300,0.0,0.0,64,0.00,CLR,FEW,0.00,WeatherDisplay:10.37,2013-01-28 00:28:00,
2013-01-27 19:33:00,14.9,4.9,30.49,WNW,300,0.0,0.0,64,0.00,CLR,FEW,0.00,WeatherDisplay:10.37,2013-01-28 00:33:00,
2013-01-27 19:38:00,14.8,3.8,30.50,WNW,300,0.0,0.0,61,0.00,CLR,FEW,0.00,WeatherDisplay:10.37,2013-01-28 00:38:00,
2013-01-27 19:43:00,14.5,3.1,30.50,WNW,300,0.0,0.0,60,0.00,CLR,FEW,0.00,WeatherDisplay:10.37,2013-01-28 00:43:00,
2013-01-27 19:48:00,14.2,3.2,30.50,WNW,300,0.0,0.0,61,0.00,CLR,FEW,0.00,WeatherDisplay:10.37,2013-01-28 00:48:00,
2013-01-27 19:53:00,13.9,2.2,30.50,WNW,300,0.0,0.0,59,0.00,CLR,FEW,0.00,WeatherDisplay:10.37,2013-01-28 00:53:00,
2013-01-27 19:58:00,13.7,3.1,30.49,WNW,300,0.0,0.0,62,0.00,CLR,FEW,0.00,WeatherDisplay:10.37,2013-01-28 00:58:00,
2013-01-27 20:03:00,13.4,3.1,30.49,WNW,300,0.0,0.0,63,0.00,CLR,FEW,0.00,WeatherDisplay:10.37,2013-01-28 01:03:00,
2013-01-27 20:08:00,12.9,3.3,30.49,WNW,300,0.0,0.0,65,0.00,CLR,FEW,0.00,WeatherDisplay:10.37,2013-01-28 01:08:00,
2013-01-27 20:13:00,12.8,1.9,30.49,WNW,300,0.0,0.0,61,0.00,CLR,FEW,0.00,WeatherDisplay:10.37,2013-01-28 01:13:00,
2013-01-27 20:18:00,12.8,1.5,30.48,WNW,300,0.0,0.0,60,0.00,CLR,FEW,0.00,WeatherDisplay:10.37,2013-01-28 01:18:00,
2013-01-27 20:23:00,12.9,1.2,30.48,WNW,300,0.0,0.0,59,0.00,CLR,FEW,0.00,WeatherDisplay:10.37,2013-01-28 01:23:00,
2013-01-27 20:28:00,12.8,2.6,30.49,WNW,300,0.0,0.0,63,0.00,CLR,FEW,0.00,WeatherDisplay:10.37,2013-01-28 01:28:00,
2013-01-27 20:33:00,12.6,2.0,30.48,WNW,300,0.0,0.0,62,0.00,CLR,FEW,0.00,WeatherDisplay:10.37,2013-01-28 01:33:00,
2013-01-27 20:38:00,12.3,1.7,30.48,WNW,300,0.0,0.0,62,0.00,CLR,FEW,0.00,WeatherDisplay:10.37,2013-01-28 01:38:00,
2013-01-27 20:43:00,12.2,2.0,30.48,WNW,300,0.0,0.0,63,0.00,CLR,FEW,0.00,WeatherDisplay:10.37,2013-01-28 01:43:00,
2013-01-27 20:48:00,12.2,2.0,30.48,WNW,300,0.0,0.0,63,0.00,CLR,FEW,0.00,WeatherDisplay:10.37,2013-01-28 01:48:00,
2013-01-27 20:53:00,12.3,2.8,30.48,WNW,300,0.0,0.0,65,0.00,CLR,FEW,0.00,WeatherDisplay:10.37,2013-01-28 01:53:00,
2013-01-27 20:58:00,12.3,1.7,30.48,WNW,300,0.0,0.0,62,0.00,CLR,FEW,0.00,WeatherDisplay:10.37,2013-01-28 01:58:00,
2013-01-27 21:03:00,12.3,2.4,30.48,WNW,300,0.0,0.0,64,0.00,CLR,FEW,0.00,WeatherDisplay:10.37,2013-01-28 02:03:00,
2013-01-27 21:08:00,12.1,2.2,30.49,WNW,300,0.0,0.0,64,0.00,CLR,FEW,0.00,WeatherDisplay:10.37,2013-01-28 02:08:00,
2013-01-27 21:13:00,12.1,3.6,30.49,WNW,300,0.0,0.0,68,0.00,CLR,FEW,0.00,WeatherDisplay:10.37,2013-01-28 02:13:00,
2013-01-27 21:18:00,11.9,3.4,30.49,WNW,300,0.0,0.0,68,0.00,CLR,FEW,0.00,WeatherDisplay:10.37,2013-01-28 02:18:00,
2013-01-27 21:23:00,11.6,3.1,30.49,WNW,300,0.0,0.0,68,0.00,CLR,FEW,0.00,WeatherDisplay:10.37,2013-01-28 02:23:00,
2013-01-27 21:28:00,11.1,2.9,30.49,WNW,300,0.0,0.0,69,0.00,CLR,FEW,0.00,WeatherDisplay:10.37,2013-01-28 02:28:00,
2013-01-27 21:33:00,10.5,2.6,30.49,WNW,300,0.0,0.0,70,0.00,CLR,FEW,0.00,WeatherDisplay:10.37,2013-01-28 02:33:00,
2013-01-27 21:38:00,10.0,2.5,30.48,WNW,300,0.0,0.0,71,0.00,CLR,FEW,0.00,WeatherDisplay:10.37,2013-01-28 02:38:00,
2013-01-27 21:43:00,9.7,2.5,30.49,WNW,300,0.0,0.0,72,0.00,CLR,FEW,0.00,WeatherDisplay:10.37,2013-01-28 02:43:00,
2013-01-27 21:48:00,9.5,2.6,30.49,WNW,300,0.0,0.0,73,0.00,CLR,FEW,0.00,WeatherDisplay:10.37,2013-01-28 02:48:00,
2013-01-27 21:53:00,9.3,2.4,30.49,WNW,300,0.0,0.0,73,0.00,CLR,FEW,0.00,WeatherDisplay:10.37,2013-01-28 02:53:00,
2013-01-27 21:58:00,9.0,2.4,30.49,WNW,300,0.0,0.0,74,0.00,CLR,FEW,0.00,WeatherDisplay:10.37,2013-01-28 02:58:00,
2013-01-27 22:03:00,8.6,2.0,30.49,WNW,300,0.0,0.0,74,0.00,CLR,FEW,0.00,WeatherDisplay:10.37,2013-01-28 03:03:00,
2013-01-27 22:08:00,8.6,2.9,30.49,WNW,300,1.2,0.0,77,0.00,CLR,FEW,0.00,WeatherDisplay:10.37,2013-01-28 03:08:00,
2013-01-27 22:13:00,8.9,2.6,30.49,WNW,300,0.0,0.0,75,0.00,CLR,FEW,0.00,WeatherDisplay:10.37,2013-01-28 03:13:00,
2013-01-27 22:18:00,9.0,2.7,30.49,WNW,300,0.0,0.0,75,0.00,CLR,FEW,0.00,WeatherDisplay:10.37,2013-01-28 03:18:00,
2013-01-27 22:23:00,8.9,2.6,30.50,WNW,300,0.0,0.0,75,0.00,CLR,FEW,0.00,WeatherDisplay:10.37,2013-01-28 03:23:00,
2013-01-27 22:28:00,8.9,2.9,30.50,WNW,300,1.2,0.0,76,0.00,CLR,FEW,0.00,WeatherDisplay:10.37,2013-01-28 03:28:00,
2013-01-27 22:33:00,8.8,2.8,30.50,WNW,300,0.0,0.0,76,0.00,CLR,FEW,0.00,WeatherDisplay:10.37,2013-01-28 03:33:00,
2013-01-27 22:38:00,8.8,2.5,30.50,WNW,300,0.0,0.0,75,0.00,CLR,FEW,0.00,WeatherDisplay:10.37,2013-01-28 03:38:00,
2013-01-27 22:43:00,8.8,2.2,30.50,WNW,300,0.0,0.0,74,0.00,CLR,FEW,0.00,WeatherDisplay:10.37,2013-01-28 03:43:00,
2013-01-27 22:48:00,8.5,1.9,30.50,WNW,300,0.0,0.0,74,0.00,CLR,FEW,0.00,WeatherDisplay:10.37,2013-01-28 03:48:00,
2013-01-27 22:53:00,8.1,1.8,30.50,WNW,300,0.0,0.0,75,0.00,CLR,FEW,0.00,WeatherDisplay:10.37,2013-01-28 03:53:00,
2013-01-27 22:58:00,7.8,1.5,30.50,WNW,300,0.0,0.0,75,0.00,CLR,FEW,0.00,WeatherDisplay:10.37,2013-01-28 03:58:00,
2013-01-27 23:03:00,7.5,1.2,30.50,WNW,300,0.0,0.0,75,0.00,CLR,FEW,0.00,WeatherDisplay:10.37,2013-01-28 04:03:00,
2013-01-27 23:08:00,7.6,1.3,30.51,WNW,300,0.0,0.0,75,0.00,CLR,FEW,0.00,WeatherDisplay:10.37,2013-01-28 04:08:00,
2013-01-27 23:13:00,7.7,1.4,30.51,WNW,300,0.0,0.0,75,0.00,CLR,FEW,0.00,WeatherDisplay:10.37,2013-01-28 04:13:00,
2013-01-27 23:18:00,7.8,1.5,30.50,WNW,300,0.0,0.0,75,0.00,CLR,FEW,0.00,WeatherDisplay:10.37,2013-01-28 04:18:00,
2013-01-27 23:23:00,7.9,1.9,30.50,WNW,300,0.0,0.0,76,0.00,CLR,FEW,0.00,WeatherDisplay:10.37,2013-01-28 04:23:00,
2013-01-27 23:28:00,7.6,1.6,30.49,WNW,300,0.0,0.0,76,0.00,CLR,FEW,0.00,WeatherDisplay:10.37,2013-01-28 04:28:00,
2013-01-27 23:33:00,6.9,0.9,30.49,WNW,300,0.0,0.0,76,0.00,CLR,FEW,0.00,WeatherDisplay:10.37,2013-01-28 04:33:00,
2013-01-27 23:38:00,6.7,1.3,30.49,WNW,300,0.0,0.0,78,0.00,CLR,FEW,0.00,WeatherDisplay:10.37,2013-01-28 04:38:00,
2013-01-27 23:43:00,6.4,1.0,30.49,WNW,300,0.0,0.0,78,0.00,CLR,FEW,0.00,WeatherDisplay:10.37,2013-01-28 04:43:00,
2013-01-27 23:48:00,6.4,1.3,30.49,WNW,300,0.0,0.0,79,0.00,CLR,FEW,0.00,WeatherDisplay:10.37,2013-01-28 04:48:00,
2013-01-27 23:53:00,6.5,1.4,30.49,WNW,300,0.0,0.0,79,0.00,CLR,FEW,0.00,WeatherDisplay:10.37,2013-01-28 04:53:00,
2013-01-27 23:58:00,6.7,1.8,30.49,WNW,300,0.0,0.0,80,0.00,CLR,FEW,0.00,WeatherDisplay:10.37,2013-01-28 04:58:00,